sensor_id;sensor_type;location;lat;lon;timestamp;P1;durP1;ratioP1;P2;durP2;ratioP2
21420;SDS011;10871;50.144;8.428;2022-12-10T00:01:13;28.60;;;16.05;;
21420;SDS011;10871;50.144;8.428;2022-12-10T00:03:40;25.50;;;15.85;;
21420;SDS011;10871;50.144;8.428;2022-12-10T00:06:07;25.92;;;15.88;;
21420;SDS011;10871;50.144;8.428;2022-12-10T00:08:33;24.27;;;13.88;;
21420;SDS011;10871;50.144;8.428;2022-12-10T00:11:02;27.05;;;14.73;;
21420;SDS011;10871;50.144;8.428;2022-12-10T00:13:28;24.02;;;13.70;;
21420;SDS011;10871;50.144;8.428;2022-12-10T00:15:55;24.92;;;15.27;;
21420;SDS011;10871;50.144;8.428;2022-12-10T00:18:21;26.17;;;15.55;;
21420;SDS011;10871;50.144;8.428;2022-12-10T00:20:47;30.58;;;16.25;;
21420;SDS011;10871;50.144;8.428;2022-12-10T00:23:14;26.42;;;15.35;;
21420;SDS011;10871;50.144;8.428;2022-12-10T00:25:48;26.52;;;15.52;;
21420;SDS011;10871;50.144;8.428;2022-12-10T00:28:14;26.60;;;15.00;;
21420;SDS011;10871;50.144;8.428;2022-12-10T00:30:41;25.67;;;15.18;;
21420;SDS011;10871;50.144;8.428;2022-12-10T00:33:07;26.50;;;15.20;;
21420;SDS011;10871;50.144;8.428;2022-12-10T00:35:36;22.48;;;14.43;;
21420;SDS011;10871;50.144;8.428;2022-12-10T00:38:03;24.30;;;14.63;;
21420;SDS011;10871;50.144;8.428;2022-12-10T00:40:29;23.45;;;13.95;;
21420;SDS011;10871;50.144;8.428;2022-12-10T00:42:55;22.52;;;13.80;;
21420;SDS011;10871;50.144;8.428;2022-12-10T00:45:22;22.38;;;14.23;;
21420;SDS011;10871;50.144;8.428;2022-12-10T00:47:48;24.10;;;14.60;;
21420;SDS011;10871;50.144;8.428;2022-12-10T00:50:15;26.70;;;14.80;;
21420;SDS011;10871;50.144;8.428;2022-12-10T00:52:41;23.85;;;14.68;;
21420;SDS011;10871;50.144;8.428;2022-12-10T00:55:07;25.48;;;14.63;;
21420;SDS011;10871;50.144;8.428;2022-12-10T00:57:34;23.65;;;13.95;;
21420;SDS011;10871;50.144;8.428;2022-12-10T01:00:00;23.00;;;13.55;;
21420;SDS011;10871;50.144;8.428;2022-12-10T01:02:27;23.00;;;13.52;;
21420;SDS011;10871;50.144;8.428;2022-12-10T01:04:54;25.77;;;14.10;;
21420;SDS011;10871;50.144;8.428;2022-12-10T01:07:20;21.70;;;13.88;;
21420;SDS011;10871;50.144;8.428;2022-12-10T01:09:46;25.30;;;14.65;;
21420;SDS011;10871;50.144;8.428;2022-12-10T01:12:13;24.95;;;14.25;;
21420;SDS011;10871;50.144;8.428;2022-12-10T01:14:39;25.73;;;14.57;;
21420;SDS011;10871;50.144;8.428;2022-12-10T01:17:05;24.90;;;14.80;;
21420;SDS011;10871;50.144;8.428;2022-12-10T01:19:33;24.83;;;14.75;;
21420;SDS011;10871;50.144;8.428;2022-12-10T01:22:00;23.35;;;13.45;;
21420;SDS011;10871;50.144;8.428;2022-12-10T01:24:27;24.33;;;14.35;;
21420;SDS011;10871;50.144;8.428;2022-12-10T01:26:54;23.17;;;13.65;;
21420;SDS011;10871;50.144;8.428;2022-12-10T01:29:23;23.55;;;14.02;;
21420;SDS011;10871;50.144;8.428;2022-12-10T01:31:50;21.85;;;12.82;;
21420;SDS011;10871;50.144;8.428;2022-12-10T01:34:17;24.98;;;14.98;;
21420;SDS011;10871;50.144;8.428;2022-12-10T01:36:44;23.02;;;14.13;;
21420;SDS011;10871;50.144;8.428;2022-12-10T01:39:13;22.58;;;13.75;;
21420;SDS011;10871;50.144;8.428;2022-12-10T01:41:42;23.80;;;14.18;;
21420;SDS011;10871;50.144;8.428;2022-12-10T01:46:42;22.42;;;13.35;;
21420;SDS011;10871;50.144;8.428;2022-12-10T01:49:10;23.90;;;13.45;;
21420;SDS011;10871;50.144;8.428;2022-12-10T01:51:38;21.88;;;13.10;;
21420;SDS011;10871;50.144;8.428;2022-12-10T01:54:06;24.90;;;13.80;;
21420;SDS011;10871;50.144;8.428;2022-12-10T01:56:35;26.25;;;14.50;;
21420;SDS011;10871;50.144;8.428;2022-12-10T01:59:03;22.33;;;13.40;;
21420;SDS011;10871;50.144;8.428;2022-12-10T02:09:43;27.02;;;14.80;;
21420;SDS011;10871;50.144;8.428;2022-12-10T02:12:20;27.63;;;14.90;;
21420;SDS011;10871;50.144;8.428;2022-12-10T02:14:59;25.20;;;14.57;;
21420;SDS011;10871;50.144;8.428;2022-12-10T02:20:32;23.45;;;13.80;;
21420;SDS011;10871;50.144;8.428;2022-12-10T02:23:10;26.92;;;14.30;;
21420;SDS011;10871;50.144;8.428;2022-12-10T02:25:42;24.02;;;14.02;;
21420;SDS011;10871;50.144;8.428;2022-12-10T02:28:13;24.65;;;14.13;;
21420;SDS011;10871;50.144;8.428;2022-12-10T02:30:44;26.13;;;14.25;;
21420;SDS011;10871;50.144;8.428;2022-12-10T02:33:11;27.30;;;14.55;;
21420;SDS011;10871;50.144;8.428;2022-12-10T02:35:38;26.77;;;14.75;;
21420;SDS011;10871;50.144;8.428;2022-12-10T02:38:12;25.98;;;14.07;;
21420;SDS011;10871;50.144;8.428;2022-12-10T02:40:42;24.38;;;13.75;;
21420;SDS011;10871;50.144;8.428;2022-12-10T02:43:12;23.38;;;13.73;;
21420;SDS011;10871;50.144;8.428;2022-12-10T02:45:38;27.13;;;14.18;;
21420;SDS011;10871;50.144;8.428;2022-12-10T02:48:06;28.60;;;14.73;;
21420;SDS011;10871;50.144;8.428;2022-12-10T02:50:38;24.92;;;13.85;;
21420;SDS011;10871;50.144;8.428;2022-12-10T02:53:05;26.42;;;14.60;;
21420;SDS011;10871;50.144;8.428;2022-12-10T02:55:36;23.20;;;13.40;;
21420;SDS011;10871;50.144;8.428;2022-12-10T03:00:41;22.00;;;12.52;;
21420;SDS011;10871;50.144;8.428;2022-12-10T03:05:49;23.23;;;13.45;;
21420;SDS011;10871;50.144;8.428;2022-12-10T03:08:22;25.17;;;13.52;;
21420;SDS011;10871;50.144;8.428;2022-12-10T03:10:58;24.60;;;13.23;;
21420;SDS011;10871;50.144;8.428;2022-12-10T03:13:29;23.48;;;12.90;;
21420;SDS011;10871;50.144;8.428;2022-12-10T03:15:58;25.15;;;12.90;;
21420;SDS011;10871;50.144;8.428;2022-12-10T03:18:25;22.08;;;13.07;;
21420;SDS011;10871;50.144;8.428;2022-12-10T03:20:52;26.38;;;13.27;;
21420;SDS011;10871;50.144;8.428;2022-12-10T03:23:20;21.52;;;12.55;;
21420;SDS011;10871;50.144;8.428;2022-12-10T03:25:47;23.58;;;12.88;;
21420;SDS011;10871;50.144;8.428;2022-12-10T03:28:14;22.90;;;12.88;;
21420;SDS011;10871;50.144;8.428;2022-12-10T03:30:41;24.63;;;12.90;;
21420;SDS011;10871;50.144;8.428;2022-12-10T03:33:09;23.42;;;13.25;;
21420;SDS011;10871;50.144;8.428;2022-12-10T03:35:36;24.58;;;12.63;;
21420;SDS011;10871;50.144;8.428;2022-12-10T03:38:04;24.02;;;12.95;;
21420;SDS011;10871;50.144;8.428;2022-12-10T03:40:30;20.42;;;12.10;;
21420;SDS011;10871;50.144;8.428;2022-12-10T03:42:57;21.42;;;11.43;;
21420;SDS011;10871;50.144;8.428;2022-12-10T03:45:23;24.33;;;13.35;;
21420;SDS011;10871;50.144;8.428;2022-12-10T03:47:49;23.08;;;12.25;;
21420;SDS011;10871;50.144;8.428;2022-12-10T03:50:16;24.25;;;13.05;;
21420;SDS011;10871;50.144;8.428;2022-12-10T03:52:42;22.80;;;11.70;;
21420;SDS011;10871;50.144;8.428;2022-12-10T03:55:09;22.10;;;11.77;;
21420;SDS011;10871;50.144;8.428;2022-12-10T03:57:35;20.92;;;12.15;;
21420;SDS011;10871;50.144;8.428;2022-12-10T04:00:03;24.17;;;13.15;;
21420;SDS011;10871;50.144;8.428;2022-12-10T04:02:37;23.52;;;12.60;;
21420;SDS011;10871;50.144;8.428;2022-12-10T04:05:03;20.95;;;12.23;;
21420;SDS011;10871;50.144;8.428;2022-12-10T04:07:31;22.50;;;12.02;;
21420;SDS011;10871;50.144;8.428;2022-12-10T04:09:57;23.80;;;12.25;;
21420;SDS011;10871;50.144;8.428;2022-12-10T04:12:23;21.25;;;12.15;;
21420;SDS011;10871;50.144;8.428;2022-12-10T04:14:50;20.92;;;11.63;;
21420;SDS011;10871;50.144;8.428;2022-12-10T04:17:35;22.02;;;11.73;;
21420;SDS011;10871;50.144;8.428;2022-12-10T04:20:01;18.92;;;11.13;;
21420;SDS011;10871;50.144;8.428;2022-12-10T04:22:27;21.15;;;11.40;;
21420;SDS011;10871;50.144;8.428;2022-12-10T04:25:12;20.17;;;11.10;;
21420;SDS011;10871;50.144;8.428;2022-12-10T04:27:57;20.42;;;11.80;;
21420;SDS011;10871;50.144;8.428;2022-12-10T04:30:24;22.13;;;11.95;;
21420;SDS011;10871;50.144;8.428;2022-12-10T04:32:51;20.45;;;12.00;;
21420;SDS011;10871;50.144;8.428;2022-12-10T04:35:17;21.83;;;11.98;;
21420;SDS011;10871;50.144;8.428;2022-12-10T04:37:44;20.10;;;11.27;;
21420;SDS011;10871;50.144;8.428;2022-12-10T04:40:10;21.55;;;11.85;;
21420;SDS011;10871;50.144;8.428;2022-12-10T04:42:37;22.27;;;11.95;;
21420;SDS011;10871;50.144;8.428;2022-12-10T04:45:04;24.27;;;12.35;;
21420;SDS011;10871;50.144;8.428;2022-12-10T04:47:30;22.85;;;11.75;;
21420;SDS011;10871;50.144;8.428;2022-12-10T04:49:56;23.15;;;11.38;;
21420;SDS011;10871;50.144;8.428;2022-12-10T04:52:23;23.05;;;11.43;;
21420;SDS011;10871;50.144;8.428;2022-12-10T04:54:49;19.73;;;11.90;;
21420;SDS011;10871;50.144;8.428;2022-12-10T04:57:15;20.25;;;11.93;;
21420;SDS011;10871;50.144;8.428;2022-12-10T04:59:42;20.58;;;11.85;;
21420;SDS011;10871;50.144;8.428;2022-12-10T05:02:08;21.25;;;11.75;;
21420;SDS011;10871;50.144;8.428;2022-12-10T05:04:35;21.83;;;11.93;;
21420;SDS011;10871;50.144;8.428;2022-12-10T05:07:01;22.38;;;12.35;;
21420;SDS011;10871;50.144;8.428;2022-12-10T05:09:27;24.23;;;11.88;;
21420;SDS011;10871;50.144;8.428;2022-12-10T05:11:54;21.50;;;11.52;;
21420;SDS011;10871;50.144;8.428;2022-12-10T05:14:20;22.23;;;12.50;;
21420;SDS011;10871;50.144;8.428;2022-12-10T05:16:48;21.88;;;12.27;;
21420;SDS011;10871;50.144;8.428;2022-12-10T05:19:15;22.67;;;12.35;;
21420;SDS011;10871;50.144;8.428;2022-12-10T05:21:41;22.52;;;12.13;;
21420;SDS011;10871;50.144;8.428;2022-12-10T05:24:26;18.33;;;11.23;;
21420;SDS011;10871;50.144;8.428;2022-12-10T05:26:53;19.83;;;11.18;;
21420;SDS011;10871;50.144;8.428;2022-12-10T05:29:19;19.92;;;11.68;;
21420;SDS011;10871;50.144;8.428;2022-12-10T05:31:45;20.00;;;11.82;;
21420;SDS011;10871;50.144;8.428;2022-12-10T05:34:12;20.40;;;11.20;;
21420;SDS011;10871;50.144;8.428;2022-12-10T05:36:38;19.25;;;11.88;;
21420;SDS011;10871;50.144;8.428;2022-12-10T05:39:04;20.52;;;11.68;;
21420;SDS011;10871;50.144;8.428;2022-12-10T05:41:33;20.45;;;11.63;;
21420;SDS011;10871;50.144;8.428;2022-12-10T05:44:00;20.23;;;11.93;;
21420;SDS011;10871;50.144;8.428;2022-12-10T05:46:27;21.33;;;11.63;;
21420;SDS011;10871;50.144;8.428;2022-12-10T05:48:54;19.45;;;11.60;;
21420;SDS011;10871;50.144;8.428;2022-12-10T05:51:22;22.90;;;12.18;;
21420;SDS011;10871;50.144;8.428;2022-12-10T05:53:50;20.35;;;11.63;;
21420;SDS011;10871;50.144;8.428;2022-12-10T05:56:17;22.42;;;12.02;;
21420;SDS011;10871;50.144;8.428;2022-12-10T05:58:44;23.15;;;12.68;;
21420;SDS011;10871;50.144;8.428;2022-12-10T06:01:15;20.70;;;12.10;;
21420;SDS011;10871;50.144;8.428;2022-12-10T06:03:42;22.83;;;12.18;;
21420;SDS011;10871;50.144;8.428;2022-12-10T06:06:08;21.55;;;11.63;;
21420;SDS011;10871;50.144;8.428;2022-12-10T06:08:35;22.83;;;12.27;;
21420;SDS011;10871;50.144;8.428;2022-12-10T06:11:05;23.60;;;12.32;;
21420;SDS011;10871;50.144;8.428;2022-12-10T06:13:32;24.00;;;12.85;;
21420;SDS011;10871;50.144;8.428;2022-12-10T06:15:59;23.92;;;12.82;;
21420;SDS011;10871;50.144;8.428;2022-12-10T06:18:25;22.17;;;12.30;;
21420;SDS011;10871;50.144;8.428;2022-12-10T06:20:52;25.02;;;13.63;;
21420;SDS011;10871;50.144;8.428;2022-12-10T06:23:18;21.40;;;12.30;;
21420;SDS011;10871;50.144;8.428;2022-12-10T06:25:44;23.42;;;13.27;;
21420;SDS011;10871;50.144;8.428;2022-12-10T06:28:11;23.98;;;13.23;;
21420;SDS011;10871;50.144;8.428;2022-12-10T06:30:38;31.95;;;13.38;;
21420;SDS011;10871;50.144;8.428;2022-12-10T06:33:04;21.65;;;12.77;;
21420;SDS011;10871;50.144;8.428;2022-12-10T06:35:30;25.30;;;13.68;;
21420;SDS011;10871;50.144;8.428;2022-12-10T06:37:57;21.63;;;12.05;;
21420;SDS011;10871;50.144;8.428;2022-12-10T06:40:23;24.10;;;12.65;;
21420;SDS011;10871;50.144;8.428;2022-12-10T06:42:50;21.85;;;12.07;;
21420;SDS011;10871;50.144;8.428;2022-12-10T06:45:17;23.58;;;13.98;;
21420;SDS011;10871;50.144;8.428;2022-12-10T06:47:43;26.65;;;13.50;;
21420;SDS011;10871;50.144;8.428;2022-12-10T06:50:09;21.55;;;12.65;;
21420;SDS011;10871;50.144;8.428;2022-12-10T06:52:38;22.50;;;13.20;;
21420;SDS011;10871;50.144;8.428;2022-12-10T06:55:04;23.48;;;13.35;;
21420;SDS011;10871;50.144;8.428;2022-12-10T06:57:31;22.58;;;12.88;;
21420;SDS011;10871;50.144;8.428;2022-12-10T06:59:57;22.05;;;12.73;;
21420;SDS011;10871;50.144;8.428;2022-12-10T07:02:23;22.38;;;13.30;;
21420;SDS011;10871;50.144;8.428;2022-12-10T07:04:50;22.23;;;12.80;;
21420;SDS011;10871;50.144;8.428;2022-12-10T07:07:16;22.23;;;13.50;;
21420;SDS011;10871;50.144;8.428;2022-12-10T07:09:43;25.27;;;13.30;;
21420;SDS011;10871;50.144;8.428;2022-12-10T07:12:09;24.85;;;13.48;;
21420;SDS011;10871;50.144;8.428;2022-12-10T07:14:35;22.15;;;13.70;;
21420;SDS011;10871;50.144;8.428;2022-12-10T07:17:02;22.20;;;13.15;;
21420;SDS011;10871;50.144;8.428;2022-12-10T07:19:28;22.33;;;13.27;;
21420;SDS011;10871;50.144;8.428;2022-12-10T07:21:54;24.23;;;13.98;;
21420;SDS011;10871;50.144;8.428;2022-12-10T07:24:21;27.13;;;14.85;;
21420;SDS011;10871;50.144;8.428;2022-12-10T07:26:47;22.65;;;13.50;;
21420;SDS011;10871;50.144;8.428;2022-12-10T07:29:15;23.00;;;13.38;;
21420;SDS011;10871;50.144;8.428;2022-12-10T07:31:41;22.92;;;13.60;;
21420;SDS011;10871;50.144;8.428;2022-12-10T07:34:09;26.00;;;15.13;;
21420;SDS011;10871;50.144;8.428;2022-12-10T07:36:35;24.67;;;14.05;;
21420;SDS011;10871;50.144;8.428;2022-12-10T07:39:04;25.55;;;15.02;;
21420;SDS011;10871;50.144;8.428;2022-12-10T07:41:31;23.23;;;13.93;;
21420;SDS011;10871;50.144;8.428;2022-12-10T07:43:58;24.00;;;14.43;;
21420;SDS011;10871;50.144;8.428;2022-12-10T07:46:25;24.15;;;14.55;;
21420;SDS011;10871;50.144;8.428;2022-12-10T07:48:52;22.38;;;13.73;;
21420;SDS011;10871;50.144;8.428;2022-12-10T07:51:18;26.92;;;14.15;;
21420;SDS011;10871;50.144;8.428;2022-12-10T07:53:45;22.40;;;13.93;;
21420;SDS011;10871;50.144;8.428;2022-12-10T07:56:11;24.35;;;14.55;;
21420;SDS011;10871;50.144;8.428;2022-12-10T07:58:40;23.88;;;15.57;;
21420;SDS011;10871;50.144;8.428;2022-12-10T08:01:08;25.20;;;14.20;;
21420;SDS011;10871;50.144;8.428;2022-12-10T08:03:35;23.35;;;13.48;;
21420;SDS011;10871;50.144;8.428;2022-12-10T08:06:02;23.10;;;13.52;;
21420;SDS011;10871;50.144;8.428;2022-12-10T08:08:28;22.05;;;13.55;;
21420;SDS011;10871;50.144;8.428;2022-12-10T08:10:55;22.50;;;13.85;;
21420;SDS011;10871;50.144;8.428;2022-12-10T08:13:21;24.45;;;14.15;;
21420;SDS011;10871;50.144;8.428;2022-12-10T08:15:47;22.58;;;14.02;;
21420;SDS011;10871;50.144;8.428;2022-12-10T08:18:14;22.67;;;14.07;;
21420;SDS011;10871;50.144;8.428;2022-12-10T08:20:40;26.88;;;14.60;;
21420;SDS011;10871;50.144;8.428;2022-12-10T08:23:06;24.23;;;14.38;;
21420;SDS011;10871;50.144;8.428;2022-12-10T08:25:33;25.08;;;14.98;;
21420;SDS011;10871;50.144;8.428;2022-12-10T08:28:05;25.63;;;15.47;;
21420;SDS011;10871;50.144;8.428;2022-12-10T08:30:32;26.15;;;15.35;;
21420;SDS011;10871;50.144;8.428;2022-12-10T08:32:58;21.83;;;13.88;;
21420;SDS011;10871;50.144;8.428;2022-12-10T08:35:24;23.70;;;14.05;;
21420;SDS011;10871;50.144;8.428;2022-12-10T08:37:51;26.20;;;14.40;;
21420;SDS011;10871;50.144;8.428;2022-12-10T08:40:18;22.20;;;13.55;;
21420;SDS011;10871;50.144;8.428;2022-12-10T08:42:44;26.13;;;14.32;;
21420;SDS011;10871;50.144;8.428;2022-12-10T08:45:10;26.40;;;15.07;;
21420;SDS011;10871;50.144;8.428;2022-12-10T08:47:37;24.75;;;15.40;;
21420;SDS011;10871;50.144;8.428;2022-12-10T08:50:03;26.02;;;15.32;;
21420;SDS011;10871;50.144;8.428;2022-12-10T08:52:29;25.05;;;15.07;;
21420;SDS011;10871;50.144;8.428;2022-12-10T08:54:56;22.88;;;14.88;;
21420;SDS011;10871;50.144;8.428;2022-12-10T08:57:22;24.45;;;14.52;;
21420;SDS011;10871;50.144;8.428;2022-12-10T08:59:49;27.02;;;15.48;;
21420;SDS011;10871;50.144;8.428;2022-12-10T09:02:15;22.33;;;14.18;;
21420;SDS011;10871;50.144;8.428;2022-12-10T09:04:41;24.13;;;14.63;;
21420;SDS011;10871;50.144;8.428;2022-12-10T09:07:08;25.25;;;15.65;;
21420;SDS011;10871;50.144;8.428;2022-12-10T09:09:38;22.25;;;14.25;;
21420;SDS011;10871;50.144;8.428;2022-12-10T09:12:04;23.63;;;14.15;;
21420;SDS011;10871;50.144;8.428;2022-12-10T09:14:31;22.00;;;14.30;;
21420;SDS011;10871;50.144;8.428;2022-12-10T09:16:57;20.48;;;12.85;;
21420;SDS011;10871;50.144;8.428;2022-12-10T09:19:24;23.75;;;13.40;;
21420;SDS011;10871;50.144;8.428;2022-12-10T09:21:50;21.05;;;13.68;;
21420;SDS011;10871;50.144;8.428;2022-12-10T09:24:16;20.60;;;12.93;;
21420;SDS011;10871;50.144;8.428;2022-12-10T09:26:43;17.42;;;12.25;;
21420;SDS011;10871;50.144;8.428;2022-12-10T09:29:09;22.55;;;13.40;;
21420;SDS011;10871;50.144;8.428;2022-12-10T09:31:35;20.65;;;13.05;;
21420;SDS011;10871;50.144;8.428;2022-12-10T09:34:02;16.70;;;11.07;;
21420;SDS011;10871;50.144;8.428;2022-12-10T09:36:28;18.05;;;12.05;;
21420;SDS011;10871;50.144;8.428;2022-12-10T09:38:59;21.27;;;12.52;;
21420;SDS011;10871;50.144;8.428;2022-12-10T09:44:30;18.65;;;12.07;;
21420;SDS011;10871;50.144;8.428;2022-12-10T09:46:59;15.50;;;11.00;;
21420;SDS011;10871;50.144;8.428;2022-12-10T09:49:30;18.83;;;11.77;;
21420;SDS011;10871;50.144;8.428;2022-12-10T09:52:00;16.67;;;10.77;;
21420;SDS011;10871;50.144;8.428;2022-12-10T09:54:30;18.58;;;11.38;;
21420;SDS011;10871;50.144;8.428;2022-12-10T09:56:57;17.23;;;11.63;;
21420;SDS011;10871;50.144;8.428;2022-12-10T09:59:29;16.10;;;10.55;;
21420;SDS011;10871;50.144;8.428;2022-12-10T10:02:03;18.92;;;11.77;;
21420;SDS011;10871;50.144;8.428;2022-12-10T10:04:35;16.30;;;10.60;;
21420;SDS011;10871;50.144;8.428;2022-12-10T10:07:02;15.98;;;10.95;;
21420;SDS011;10871;50.144;8.428;2022-12-10T10:09:29;15.43;;;10.40;;
21420;SDS011;10871;50.144;8.428;2022-12-10T10:11:57;15.65;;;10.43;;
21420;SDS011;10871;50.144;8.428;2022-12-10T10:14:27;14.25;;;9.73;;
21420;SDS011;10871;50.144;8.428;2022-12-10T10:16:56;15.55;;;10.50;;
21420;SDS011;10871;50.144;8.428;2022-12-10T10:19:26;13.93;;;9.88;;
21420;SDS011;10871;50.144;8.428;2022-12-10T10:21:53;15.65;;;10.02;;
21420;SDS011;10871;50.144;8.428;2022-12-10T10:24:25;12.82;;;9.40;;
21420;SDS011;10871;50.144;8.428;2022-12-10T10:26:53;13.80;;;9.82;;
21420;SDS011;10871;50.144;8.428;2022-12-10T10:29:22;14.02;;;9.48;;
21420;SDS011;10871;50.144;8.428;2022-12-10T10:34:38;14.98;;;10.27;;
21420;SDS011;10871;50.144;8.428;2022-12-10T10:37:05;14.10;;;9.75;;
21420;SDS011;10871;50.144;8.428;2022-12-10T10:39:32;15.57;;;10.60;;
21420;SDS011;10871;50.144;8.428;2022-12-10T10:42:08;15.00;;;10.18;;
21420;SDS011;10871;50.144;8.428;2022-12-10T10:44:36;13.88;;;9.63;;
21420;SDS011;10871;50.144;8.428;2022-12-10T10:47:23;12.05;;;9.13;;
21420;SDS011;10871;50.144;8.428;2022-12-10T10:49:56;13.95;;;10.20;;
21420;SDS011;10871;50.144;8.428;2022-12-10T10:52:22;12.98;;;9.90;;
21420;SDS011;10871;50.144;8.428;2022-12-10T10:54:53;13.25;;;9.63;;
21420;SDS011;10871;50.144;8.428;2022-12-10T10:57:21;12.32;;;9.98;;
21420;SDS011;10871;50.144;8.428;2022-12-10T10:59:51;11.55;;;9.00;;
21420;SDS011;10871;50.144;8.428;2022-12-10T11:04:48;10.20;;;8.80;;
21420;SDS011;10871;50.144;8.428;2022-12-10T11:07:23;10.57;;;9.48;;
21420;SDS011;10871;50.144;8.428;2022-12-10T11:09:52;11.75;;;10.43;;
21420;SDS011;10871;50.144;8.428;2022-12-10T11:12:36;11.50;;;10.32;;
21420;SDS011;10871;50.144;8.428;2022-12-10T11:17:51;13.57;;;11.70;;
21420;SDS011;10871;50.144;8.428;2022-12-10T11:20:22;11.63;;;10.43;;
21420;SDS011;10871;50.144;8.428;2022-12-10T11:22:50;12.32;;;10.98;;
21420;SDS011;10871;50.144;8.428;2022-12-10T11:25:17;12.75;;;10.90;;
21420;SDS011;10871;50.144;8.428;2022-12-10T11:27:48;12.63;;;10.75;;
21420;SDS011;10871;50.144;8.428;2022-12-10T11:30:26;12.77;;;11.32;;
21420;SDS011;10871;50.144;8.428;2022-12-10T11:38:13;13.30;;;10.82;;
21420;SDS011;10871;50.144;8.428;2022-12-10T11:45:52;15.18;;;11.75;;
21420;SDS011;10871;50.144;8.428;2022-12-10T11:51:08;13.32;;;10.00;;
21420;SDS011;10871;50.144;8.428;2022-12-10T11:53:55;13.43;;;10.02;;
21420;SDS011;10871;50.144;8.428;2022-12-10T11:59:13;12.85;;;10.20;;
21420;SDS011;10871;50.144;8.428;2022-12-10T12:04:14;11.68;;;9.80;;
21420;SDS011;10871;50.144;8.428;2022-12-10T12:06:51;11.38;;;9.25;;
21420;SDS011;10871;50.144;8.428;2022-12-10T12:12:16;14.52;;;9.82;;
21420;SDS011;10871;50.144;8.428;2022-12-10T12:14:59;12.20;;;9.90;;
21420;SDS011;10871;50.144;8.428;2022-12-10T12:17:36;14.13;;;11.02;;
21420;SDS011;10871;50.144;8.428;2022-12-10T12:22:41;13.13;;;11.25;;
21420;SDS011;10871;50.144;8.428;2022-12-10T12:27:43;12.80;;;10.90;;
21420;SDS011;10871;50.144;8.428;2022-12-10T12:32:40;14.13;;;11.70;;
21420;SDS011;10871;50.144;8.428;2022-12-10T12:35:13;14.67;;;10.57;;
21420;SDS011;10871;50.144;8.428;2022-12-10T12:37:53;13.68;;;11.35;;
21420;SDS011;10871;50.144;8.428;2022-12-10T12:40:25;13.43;;;10.52;;
21420;SDS011;10871;50.144;8.428;2022-12-10T12:42:55;13.20;;;10.50;;
21420;SDS011;10871;50.144;8.428;2022-12-10T12:45:31;13.20;;;9.82;;
21420;SDS011;10871;50.144;8.428;2022-12-10T12:53:15;11.82;;;9.15;;
21420;SDS011;10871;50.144;8.428;2022-12-10T12:55:56;12.00;;;9.80;;
21420;SDS011;10871;50.144;8.428;2022-12-10T12:58:38;13.10;;;10.45;;
21420;SDS011;10871;50.144;8.428;2022-12-10T13:03:45;14.70;;;10.27;;
21420;SDS011;10871;50.144;8.428;2022-12-10T13:06:22;13.93;;;10.18;;
21420;SDS011;10871;50.144;8.428;2022-12-10T13:08:53;13.60;;;10.07;;
21420;SDS011;10871;50.144;8.428;2022-12-10T13:11:34;11.57;;;9.05;;
21420;SDS011;10871;50.144;8.428;2022-12-10T13:21:58;12.23;;;9.60;;
21420;SDS011;10871;50.144;8.428;2022-12-10T13:35:22;10.98;;;8.73;;
21420;SDS011;10871;50.144;8.428;2022-12-10T13:43:37;10.88;;;8.10;;
21420;SDS011;10871;50.144;8.428;2022-12-10T13:46:28;11.20;;;9.15;;
21420;SDS011;10871;50.144;8.428;2022-12-10T13:49:05;13.32;;;9.52;;
21420;SDS011;10871;50.144;8.428;2022-12-10T13:51:36;11.38;;;8.82;;
21420;SDS011;10871;50.144;8.428;2022-12-10T13:56:49;17.08;;;11.32;;
21420;SDS011;10871;50.144;8.428;2022-12-10T14:02:03;15.82;;;10.65;;
21420;SDS011;10871;50.144;8.428;2022-12-10T14:07:18;16.85;;;10.90;;
21420;SDS011;10871;50.144;8.428;2022-12-10T14:09:48;13.32;;;9.15;;
21420;SDS011;10871;50.144;8.428;2022-12-10T14:12:35;15.68;;;9.95;;
21420;SDS011;10871;50.144;8.428;2022-12-10T14:15:16;16.15;;;10.15;;
21420;SDS011;10871;50.144;8.428;2022-12-10T14:17:44;16.67;;;9.88;;
21420;SDS011;10871;50.144;8.428;2022-12-10T14:20:14;15.18;;;10.20;;
21420;SDS011;10871;50.144;8.428;2022-12-10T14:22:46;12.07;;;8.60;;
21420;SDS011;10871;50.144;8.428;2022-12-10T14:25:15;15.05;;;10.15;;
21420;SDS011;10871;50.144;8.428;2022-12-10T14:27:41;15.90;;;10.50;;
21420;SDS011;10871;50.144;8.428;2022-12-10T14:30:15;16.52;;;9.93;;
21420;SDS011;10871;50.144;8.428;2022-12-10T14:32:42;12.63;;;8.90;;
21420;SDS011;10871;50.144;8.428;2022-12-10T14:35:12;13.45;;;9.20;;
21420;SDS011;10871;50.144;8.428;2022-12-10T14:37:40;12.30;;;8.27;;
21420;SDS011;10871;50.144;8.428;2022-12-10T14:40:08;16.02;;;10.15;;
21420;SDS011;10871;50.144;8.428;2022-12-10T14:42:38;13.80;;;9.32;;
21420;SDS011;10871;50.144;8.428;2022-12-10T14:45:05;15.60;;;9.80;;
21420;SDS011;10871;50.144;8.428;2022-12-10T14:47:36;16.23;;;10.52;;
21420;SDS011;10871;50.144;8.428;2022-12-10T14:50:05;16.88;;;10.70;;
21420;SDS011;10871;50.144;8.428;2022-12-10T14:52:34;16.23;;;10.55;;
21420;SDS011;10871;50.144;8.428;2022-12-10T14:55:05;15.88;;;10.50;;
21420;SDS011;10871;50.144;8.428;2022-12-10T14:57:33;15.13;;;9.80;;
21420;SDS011;10871;50.144;8.428;2022-12-10T15:00:04;18.05;;;10.35;;
21420;SDS011;10871;50.144;8.428;2022-12-10T15:02:35;16.45;;;9.88;;
21420;SDS011;10871;50.144;8.428;2022-12-10T15:05:02;19.10;;;11.02;;
21420;SDS011;10871;50.144;8.428;2022-12-10T15:07:33;15.70;;;10.27;;
21420;SDS011;10871;50.144;8.428;2022-12-10T15:10:07;17.77;;;10.77;;
21420;SDS011;10871;50.144;8.428;2022-12-10T15:12:47;16.13;;;10.93;;
21420;SDS011;10871;50.144;8.428;2022-12-10T15:15:19;18.10;;;11.88;;
21420;SDS011;10871;50.144;8.428;2022-12-10T15:18:02;16.45;;;11.32;;
21420;SDS011;10871;50.144;8.428;2022-12-10T15:20:45;17.90;;;11.38;;
21420;SDS011;10871;50.144;8.428;2022-12-10T15:23:18;23.70;;;14.00;;
21420;SDS011;10871;50.144;8.428;2022-12-10T15:25:52;29.13;;;12.93;;
21420;SDS011;10871;50.144;8.428;2022-12-10T15:28:41;18.27;;;12.02;;
21420;SDS011;10871;50.144;8.428;2022-12-10T15:33:54;20.25;;;13.00;;
21420;SDS011;10871;50.144;8.428;2022-12-10T15:38:53;21.90;;;14.00;;
21420;SDS011;10871;50.144;8.428;2022-12-10T15:41:24;20.33;;;13.45;;
21420;SDS011;10871;50.144;8.428;2022-12-10T15:43:59;23.63;;;14.02;;
21420;SDS011;10871;50.144;8.428;2022-12-10T15:46:26;23.65;;;14.18;;
21420;SDS011;10871;50.144;8.428;2022-12-10T15:48:52;25.75;;;14.95;;
21420;SDS011;10871;50.144;8.428;2022-12-10T15:51:19;26.83;;;13.82;;
21420;SDS011;10871;50.144;8.428;2022-12-10T15:53:45;22.55;;;14.00;;
21420;SDS011;10871;50.144;8.428;2022-12-10T15:56:11;23.83;;;14.98;;
21420;SDS011;10871;50.144;8.428;2022-12-10T15:58:38;23.85;;;14.13;;
21420;SDS011;10871;50.144;8.428;2022-12-10T16:01:04;21.73;;;14.10;;
21420;SDS011;10871;50.144;8.428;2022-12-10T16:03:31;24.48;;;14.95;;
21420;SDS011;10871;50.144;8.428;2022-12-10T16:05:58;25.77;;;15.10;;
21420;SDS011;10871;50.144;8.428;2022-12-10T16:08:26;24.20;;;13.82;;
21420;SDS011;10871;50.144;8.428;2022-12-10T16:10:57;21.92;;;13.55;;
21420;SDS011;10871;50.144;8.428;2022-12-10T16:13:30;20.48;;;13.38;;
21420;SDS011;10871;50.144;8.428;2022-12-10T16:15:58;20.67;;;12.38;;
21420;SDS011;10871;50.144;8.428;2022-12-10T16:18:25;26.67;;;15.30;;